createdAt,value
2022-11-02T00:01:39.475Z,61.00
2022-11-02T00:04:06.145Z,61.71
2022-11-02T00:06:33.451Z,61.29
2022-11-02T00:09:00.010Z,61.44
2022-11-02T00:11:27.032Z,61.72
2022-11-02T00:13:53.663Z,61.21
2022-11-02T00:16:22.572Z,61.02
2022-11-02T00:18:53.447Z,60.97
2022-11-02T00:21:21.625Z,60.67
2022-11-02T00:23:49.196Z,61.25
2022-11-02T00:26:16.056Z,61.17
2022-11-02T00:28:43.251Z,61.26
2022-11-02T00:31:09.880Z,60.80
2022-11-02T00:33:36.515Z,60.96
2022-11-02T00:36:03.209Z,61.23
2022-11-02T00:38:32.035Z,60.77
2022-11-02T00:40:59.134Z,61.00
2022-11-02T00:43:25.883Z,60.85
2022-11-02T00:45:52.578Z,60.87
2022-11-02T00:48:19.181Z,60.76
2022-11-02T00:50:46.854Z,60.37
2022-11-02T00:53:13.583Z,60.18
2022-11-02T00:55:48.738Z,60.04
2022-11-02T00:58:15.567Z,60.40
2022-11-02T01:00:42.265Z,60.39
2022-11-02T01:03:09.459Z,60.53
2022-11-02T01:05:37.563Z,60.10
2022-11-02T01:08:05.057Z,60.49
2022-11-02T01:10:31.872Z,60.45
2022-11-02T01:13:01.052Z,60.62
2022-11-02T01:15:28.258Z,60.80
2022-11-02T01:17:54.889Z,60.50
2022-11-02T01:20:21.759Z,60.65
2022-11-02T01:22:48.354Z,60.23
2022-11-02T01:25:15.117Z,60.41
2022-11-02T01:27:41.641Z,60.91
2022-11-02T01:30:08.660Z,61.20
2022-11-02T01:32:36.254Z,61.25
2022-11-02T01:35:03.008Z,61.19
2022-11-02T01:37:29.719Z,61.31
2022-11-02T01:39:56.350Z,60.95
2022-11-02T01:42:25.410Z,61.21
2022-11-02T01:44:52.243Z,61.09
2022-11-02T01:47:21.740Z,61.16
2022-11-02T01:49:52.790Z,61.52
2022-11-02T01:52:39.715Z,61.79
2022-11-02T01:55:10.553Z,61.41
2022-11-02T01:57:41.632Z,61.79
2022-11-02T02:00:14.749Z,61.46
2022-11-02T02:03:07.038Z,62.28
2022-11-02T02:05:47.444Z,62.68
2022-11-02T02:08:20.274Z,62.61
2022-11-02T02:10:46.846Z,62.72
2022-11-02T02:13:14.577Z,62.27
2022-11-02T02:15:57.434Z,62.64
2022-11-02T02:18:29.301Z,62.60
2022-11-02T02:21:25.583Z,62.56
2022-11-02T02:24:34.078Z,63.08
2022-11-02T02:27:21.710Z,62.89
2022-11-02T02:30:02.306Z,62.55
2022-11-02T02:32:51.064Z,62.90
2022-11-02T02:35:28.796Z,62.81
2022-11-02T02:38:03.380Z,62.94
2022-11-02T02:40:35.376Z,63.34
2022-11-02T02:43:08.317Z,63.13
2022-11-02T02:45:39.590Z,62.88
2022-11-02T02:48:17.207Z,63.47
2022-11-02T02:51:06.409Z,63.63
2022-11-02T02:54:00.043Z,63.75
2022-11-02T02:56:31.813Z,63.80
2022-11-02T02:59:00.439Z,63.96
2022-11-02T03:01:28.382Z,63.62
2022-11-02T03:03:54.988Z,63.60
2022-11-02T03:06:33.992Z,63.74
2022-11-02T03:09:23.043Z,63.91
2022-11-02T03:11:56.530Z,64.09
2022-11-02T03:14:42.608Z,63.98
2022-11-02T03:17:20.416Z,63.97
2022-11-02T03:20:34.017Z,63.95
2022-11-02T03:23:14.396Z,63.62
2022-11-02T03:25:50.457Z,63.50
2022-11-02T03:28:33.609Z,63.79
2022-11-02T03:31:12.849Z,64.11
2022-11-02T03:33:52.212Z,63.92
2022-11-02T03:36:24.966Z,63.88
2022-11-02T03:39:00.571Z,63.94
2022-11-02T03:41:31.727Z,64.42
2022-11-02T03:44:11.921Z,63.69
2022-11-02T03:46:41.962Z,63.42
2022-11-02T03:49:14.918Z,63.44
2022-11-02T03:51:45.937Z,63.79
2022-11-02T03:54:49.879Z,63.61
2022-11-02T03:57:36.002Z,63.40
2022-11-02T04:00:32.374Z,63.33
2022-11-02T04:03:07.909Z,63.49
2022-11-02T04:05:39.668Z,63.22
2022-11-02T04:08:22.057Z,62.69
2022-11-02T04:11:13.858Z,62.93
2022-11-02T04:14:01.768Z,62.78
2022-11-02T04:16:31.430Z,62.69
2022-11-02T04:19:18.497Z,62.53
2022-11-02T04:22:05.353Z,62.16
2022-11-02T04:24:52.805Z,62.34
2022-11-02T04:27:21.099Z,62.39
2022-11-02T04:29:48.452Z,61.99
2022-11-02T04:32:15.489Z,61.73
2022-11-02T04:34:42.139Z,61.43
2022-11-02T04:37:28.640Z,61.53
2022-11-02T04:39:55.172Z,61.12
2022-11-02T04:42:22.384Z,60.94
2022-11-02T04:44:57.023Z,60.91
2022-11-02T04:47:23.959Z,60.79
2022-11-02T04:49:51.101Z,61.01
2022-11-02T04:52:18.840Z,61.01
2022-11-02T04:54:49.227Z,60.53
2022-11-02T04:57:15.927Z,60.74
2022-11-02T04:59:43.409Z,60.88
2022-11-02T05:02:10.139Z,60.61
2022-11-02T05:04:37.527Z,60.49
2022-11-02T05:07:06.466Z,60.49
2022-11-02T05:09:35.082Z,60.70
2022-11-02T05:12:05.010Z,60.04
2022-11-02T05:14:32.844Z,60.41
2022-11-02T05:17:01.015Z,60.37
2022-11-02T05:19:28.220Z,60.65
2022-11-02T05:21:54.740Z,60.72
2022-11-02T05:24:23.082Z,60.76
2022-11-02T05:26:53.777Z,60.87
2022-11-02T05:29:22.911Z,60.24
2022-11-02T05:31:49.975Z,60.29
2022-11-02T05:34:16.691Z,60.66
2022-11-02T05:36:43.523Z,61.44
2022-11-02T05:39:10.183Z,61.64
2022-11-02T05:41:36.766Z,61.86
2022-11-02T05:44:04.245Z,61.85
2022-11-02T05:46:31.402Z,62.58
2022-11-02T05:48:58.000Z,62.34
2022-11-02T05:51:24.788Z,62.86
2022-11-02T05:53:51.351Z,62.76
2022-11-02T05:56:23.655Z,63.04
2022-11-02T06:01:18.943Z,63.53
2022-11-02T06:03:50.488Z,63.64
2022-11-02T06:06:19.721Z,63.33
2022-11-02T06:08:46.274Z,63.83
2022-11-02T06:11:13.950Z,63.53
2022-11-02T06:13:41.399Z,63.96
2022-11-02T06:16:09.893Z,63.69
2022-11-02T06:18:38.267Z,63.85
2022-11-02T06:21:05.157Z,63.87
2022-11-02T06:23:31.783Z,63.38
2022-11-02T06:26:00.603Z,63.57
2022-11-02T06:28:28.187Z,63.30
2022-11-02T06:30:55.924Z,62.90
2022-11-02T06:33:23.424Z,62.86
2022-11-02T06:35:54.518Z,62.95
2022-11-02T06:38:22.106Z,62.42
2022-11-02T06:40:59.890Z,62.63
2022-11-02T06:43:26.548Z,62.50
2022-11-02T06:45:57.579Z,62.57
2022-11-02T06:48:28.717Z,62.55
2022-11-02T06:50:59.917Z,62.51
2022-11-02T06:53:26.618Z,62.65
2022-11-02T06:55:54.904Z,62.52
2022-11-02T06:58:23.061Z,62.48
2022-11-02T07:00:49.806Z,62.61
2022-11-02T07:03:16.817Z,62.74
2022-11-02T07:05:50.697Z,63.38
2022-11-02T07:08:17.266Z,63.75
2022-11-02T07:10:44.214Z,63.28
2022-11-02T07:13:11.009Z,63.78
2022-11-02T07:15:37.823Z,64.57
2022-11-02T07:18:06.185Z,63.90
2022-11-02T07:20:33.534Z,64.00
2022-11-02T07:23:01.951Z,63.77
2022-11-02T07:25:32.766Z,63.42
2022-11-02T07:28:01.460Z,63.40
2022-11-02T07:30:34.543Z,63.51
2022-11-02T07:33:01.874Z,62.92
2022-11-02T07:35:28.820Z,63.37
2022-11-02T07:38:00.110Z,63.03
2022-11-02T07:40:28.432Z,62.84
2022-11-02T07:42:56.272Z,62.75
2022-11-02T07:45:32.726Z,62.58
2022-11-02T07:47:59.325Z,62.18
2022-11-02T07:50:29.109Z,62.43
2022-11-02T07:52:57.714Z,62.19
2022-11-02T07:55:30.097Z,61.67
2022-11-02T07:58:01.200Z,61.74
2022-11-02T08:00:31.249Z,60.95
2022-11-02T08:02:59.317Z,60.91
2022-11-02T08:05:27.441Z,61.04
2022-11-02T08:08:05.726Z,60.98
2022-11-02T08:10:37.427Z,60.63
2022-11-02T08:13:11.375Z,60.17
2022-11-02T08:15:38.300Z,59.84
2022-11-02T08:18:12.365Z,59.90
2022-11-02T08:20:39.293Z,59.16
2022-11-02T08:23:07.727Z,58.87
2022-11-02T08:25:34.994Z,58.77
2022-11-02T08:28:02.296Z,59.03
2022-11-02T08:30:31.688Z,58.79
2022-11-02T08:33:03.925Z,58.71
2022-11-02T08:35:30.650Z,57.96
2022-11-02T08:37:58.116Z,58.12
2022-11-02T08:40:24.851Z,57.88
2022-11-02T08:42:59.528Z,57.82
2022-11-02T08:45:26.946Z,57.15
2022-11-02T08:47:53.741Z,57.62
2022-11-02T08:50:21.861Z,57.16
2022-11-02T08:52:48.558Z,57.51
2022-11-02T08:55:15.462Z,57.18
2022-11-02T08:57:52.870Z,56.84
2022-11-02T09:00:22.663Z,57.01
2022-11-02T09:03:02.850Z,57.00
2022-11-02T09:05:31.849Z,57.27
2022-11-02T09:08:05.153Z,56.52
2022-11-02T09:10:35.088Z,55.99
2022-11-02T09:13:02.708Z,55.40
2022-11-02T09:15:30.094Z,55.10
2022-11-02T09:17:56.754Z,54.72
2022-11-02T09:20:26.054Z,53.93
2022-11-02T09:22:52.583Z,53.92
2022-11-02T09:25:21.559Z,53.27
2022-11-02T09:27:55.425Z,52.73
2022-11-02T09:30:23.656Z,52.71
2022-11-02T09:32:58.213Z,52.15
2022-11-02T09:35:26.437Z,51.56
2022-11-02T09:37:53.039Z,50.67
2022-11-02T09:40:25.588Z,51.09
2022-11-02T09:42:58.039Z,50.80
2022-11-02T09:45:25.171Z,50.47
2022-11-02T09:48:16.136Z,50.92
2022-11-02T09:50:59.288Z,50.40
2022-11-02T09:53:41.930Z,49.90
2022-11-02T09:56:11.030Z,49.54
2022-11-02T09:58:40.612Z,49.53
2022-11-02T10:01:32.530Z,49.08
2022-11-02T10:04:20.862Z,48.21
2022-11-02T10:06:56.805Z,47.10
2022-11-02T10:09:36.244Z,46.89
2022-11-02T10:12:12.446Z,45.98
2022-11-02T10:14:48.105Z,45.62
2022-11-02T10:17:19.572Z,46.14
2022-11-02T10:19:52.104Z,45.54
2022-11-02T10:22:20.316Z,45.30
2022-11-02T10:24:48.287Z,44.83
2022-11-02T10:27:33.048Z,44.99
2022-11-02T10:30:16.174Z,41.80
2022-11-02T10:32:44.971Z,40.27
2022-11-02T10:36:19.284Z,40.68
2022-11-02T10:39:05.675Z,42.49
2022-11-02T10:41:50.672Z,42.81
2022-11-02T10:44:31.847Z,43.25
2022-11-02T10:47:04.354Z,42.12
2022-11-02T10:49:49.079Z,37.06
2022-11-02T10:52:17.962Z,31.25
2022-11-02T10:54:44.573Z,26.19
2022-11-02T10:57:13.482Z,24.15
2022-11-02T10:59:40.642Z,21.66
2022-11-02T11:02:14.768Z,20.74
2022-11-02T11:04:42.538Z,20.29
2022-11-02T11:07:26.410Z,19.01
2022-11-02T11:09:55.609Z,17.78
2022-11-02T11:12:44.511Z,17.50
2022-11-02T11:21:01.340Z,16.49
2022-11-02T11:23:28.036Z,15.59
2022-11-02T11:25:59.393Z,16.23
2022-11-02T11:28:25.898Z,15.33
2022-11-02T11:31:12.260Z,15.20
2022-11-02T11:34:00.024Z,13.84
2022-11-02T11:36:33.495Z,14.24
2022-11-02T11:39:02.490Z,14.19
2022-11-02T11:41:33.035Z,13.57
2022-11-02T11:44:01.333Z,13.14
2022-11-02T11:46:48.010Z,12.72
2022-11-02T11:49:55.056Z,13.31
2022-11-02T11:52:31.995Z,12.60
2022-11-02T11:55:20.666Z,12.96
2022-11-02T11:58:04.349Z,12.18
2022-11-02T12:00:31.334Z,12.50
2022-11-02T12:03:06.063Z,12.37
2022-11-02T12:05:52.135Z,12.73
2022-11-02T12:08:41.053Z,12.39
2022-11-02T12:11:32.587Z,12.75
2022-11-02T12:14:34.764Z,12.95
2022-11-02T12:17:25.833Z,13.51
2022-11-02T12:20:17.535Z,14.00
2022-11-02T12:22:58.277Z,13.28
2022-11-02T12:25:42.459Z,13.72
2022-11-02T12:28:19.313Z,14.45
2022-11-02T12:31:20.318Z,14.93
2022-11-02T12:34:07.292Z,15.26
2022-11-02T12:37:40.053Z,16.63
2022-11-02T12:40:29.694Z,18.86
2022-11-02T12:43:18.062Z,22.62
2022-11-02T12:45:56.145Z,24.10
2022-11-02T12:49:05.819Z,26.29
2022-11-02T12:51:48.308Z,27.48
2022-11-02T12:54:22.989Z,27.93
2022-11-02T12:56:54.119Z,28.42
2022-11-02T12:59:34.478Z,29.42
2022-11-02T13:02:18.169Z,29.38
2022-11-02T13:04:44.719Z,29.41
2022-11-02T13:07:14.874Z,29.69
2022-11-02T13:09:56.114Z,29.72
2022-11-02T13:12:24.393Z,30.49
2022-11-02T13:14:55.169Z,30.50
2022-11-02T13:17:27.304Z,30.82
2022-11-02T13:19:57.983Z,31.54
2022-11-02T13:22:35.464Z,31.43
2022-11-02T13:25:25.976Z,31.42
2022-11-02T13:28:02.643Z,30.98
2022-11-02T13:30:33.553Z,31.76
2022-11-02T13:33:08.631Z,31.65
2022-11-02T13:35:38.001Z,31.68
2022-11-02T13:38:06.915Z,32.24
2022-11-02T13:40:42.284Z,31.89
2022-11-02T13:43:17.770Z,32.10
2022-11-02T13:45:47.189Z,32.26
2022-11-02T13:48:40.404Z,32.06
2022-11-02T13:51:35.005Z,32.05
2022-11-02T13:54:26.245Z,31.92
2022-11-02T13:56:56.854Z,32.17
2022-11-02T13:59:31.996Z,32.21
2022-11-02T14:02:02.105Z,32.23
2022-11-02T14:04:36.818Z,32.43
2022-11-02T14:07:07.871Z,32.69
2022-11-02T14:09:42.209Z,32.83
2022-11-02T14:12:21.111Z,33.23
2022-11-02T14:15:13.959Z,33.30
2022-11-02T14:17:52.792Z,33.08
2022-11-02T14:20:36.022Z,33.28
2022-11-02T14:23:12.044Z,33.28
2022-11-02T14:25:53.115Z,34.25
2022-11-02T14:28:22.357Z,33.95
2022-11-02T14:31:18.892Z,33.77
2022-11-02T14:34:12.394Z,34.62
2022-11-02T14:36:54.330Z,34.83
2022-11-02T14:39:27.029Z,34.96
2022-11-02T14:42:10.622Z,35.29
2022-11-02T14:45:21.958Z,35.39
2022-11-02T14:47:48.670Z,35.72
2022-11-02T14:50:21.112Z,35.54
2022-11-02T14:53:21.550Z,35.64
2022-11-02T14:55:54.284Z,35.97
2022-11-02T14:58:23.961Z,36.16
2022-11-02T15:00:50.844Z,36.41
2022-11-02T15:03:26.461Z,36.56
2022-11-02T15:06:13.619Z,36.31
2022-11-02T15:08:43.122Z,36.34
2022-11-02T15:11:47.160Z,36.62
2022-11-02T15:14:35.655Z,36.19
2022-11-02T15:17:26.616Z,36.15
2022-11-02T15:20:15.881Z,36.25
2022-11-02T15:22:52.890Z,36.24
2022-11-02T15:25:26.445Z,36.64
2022-11-02T15:27:57.391Z,37.10
2022-11-02T15:30:28.372Z,36.84
2022-11-02T15:33:05.666Z,37.13
2022-11-02T15:35:37.979Z,37.26
2022-11-02T15:38:28.069Z,37.57
2022-11-02T15:41:30.307Z,37.81
2022-11-02T15:44:19.952Z,38.48
2022-11-02T15:46:51.140Z,38.36
2022-11-02T15:49:42.505Z,39.02
2022-11-02T15:52:20.053Z,39.07
2022-11-02T15:55:02.001Z,39.73
2022-11-02T15:58:21.287Z,40.00
2022-11-02T16:01:11.794Z,39.64
2022-11-02T16:03:38.653Z,40.11
2022-11-02T16:06:06.165Z,40.10
2022-11-02T16:08:36.006Z,40.13
2022-11-02T16:11:10.499Z,40.35
2022-11-02T16:13:55.545Z,40.67
2022-11-02T16:16:22.581Z,40.97
2022-11-02T16:18:52.440Z,41.32
2022-11-02T16:21:20.527Z,40.98
2022-11-02T16:23:50.066Z,41.67
2022-11-02T16:26:22.360Z,41.88
2022-11-02T16:28:52.321Z,41.68
2022-11-02T16:31:31.518Z,41.72
2022-11-02T16:34:00.705Z,41.98
2022-11-02T16:36:40.331Z,42.53
2022-11-02T16:39:13.249Z,42.90
2022-11-02T16:41:41.090Z,43.29
2022-11-02T16:44:16.782Z,43.17
2022-11-02T16:46:55.497Z,43.07
2022-11-02T16:49:24.376Z,43.17
2022-11-02T16:51:57.703Z,44.02
2022-11-02T16:54:33.561Z,43.55
2022-11-02T16:57:10.281Z,43.83
2022-11-02T17:00:09.474Z,44.04
2022-11-02T17:02:41.981Z,44.29
2022-11-02T17:05:24.636Z,44.66
2022-11-02T17:08:05.058Z,44.75
2022-11-02T17:10:34.121Z,44.68
2022-11-02T17:13:02.789Z,44.93
2022-11-02T17:15:34.161Z,45.74
2022-11-02T17:18:09.851Z,45.36
2022-11-02T17:20:38.543Z,45.96
2022-11-02T17:23:10.660Z,45.67
2022-11-02T17:25:39.958Z,45.82
2022-11-02T17:28:35.052Z,46.54
2022-11-02T17:31:01.979Z,46.51
2022-11-02T17:33:30.649Z,46.84
2022-11-02T17:36:05.614Z,46.37
2022-11-02T17:38:32.752Z,46.55
2022-11-02T17:41:00.560Z,46.88
2022-11-02T17:43:27.545Z,47.21
2022-11-02T17:46:03.235Z,47.03
2022-11-02T17:48:30.109Z,47.50
2022-11-02T17:50:59.545Z,47.15
2022-11-02T17:53:26.235Z,47.78
2022-11-02T17:55:53.812Z,47.07
2022-11-02T17:58:20.496Z,48.02
2022-11-02T18:00:47.133Z,48.23
2022-11-02T18:03:17.203Z,48.15
2022-11-02T18:05:48.328Z,48.88
2022-11-02T18:08:17.233Z,48.74
2022-11-02T18:10:45.890Z,49.52
2022-11-02T18:13:17.533Z,49.05
2022-11-02T18:15:44.188Z,49.27
2022-11-02T18:18:11.494Z,49.16
2022-11-02T18:20:41.838Z,49.20
2022-11-02T18:23:15.537Z,49.51
2022-11-02T18:25:42.558Z,49.44
2022-11-02T18:28:09.258Z,50.48
2022-11-02T18:30:35.974Z,50.44
2022-11-02T18:33:03.530Z,50.62
2022-11-02T18:35:30.219Z,50.31
2022-11-02T18:37:56.851Z,51.28
2022-11-02T18:40:23.674Z,51.20
2022-11-02T18:42:52.531Z,51.61
2022-11-02T18:45:19.348Z,51.27
2022-11-02T18:47:46.224Z,50.96
2022-11-02T18:50:13.947Z,50.68
2022-11-02T18:52:41.999Z,50.60
2022-11-02T18:55:08.702Z,50.83
2022-11-02T18:57:35.359Z,50.71
2022-11-02T19:00:02.992Z,51.08
2022-11-02T19:02:30.316Z,50.84
2022-11-02T19:04:57.216Z,51.10
2022-11-02T19:07:42.932Z,51.11
2022-11-02T19:10:10.121Z,51.06
2022-11-02T19:12:37.388Z,50.80
2022-11-02T19:15:04.555Z,51.08
2022-11-02T19:17:31.211Z,51.41
2022-11-02T19:19:57.953Z,51.25
2022-11-02T19:22:26.387Z,51.02
2022-11-02T19:24:53.409Z,51.44
2022-11-02T19:27:25.418Z,51.23
2022-11-02T19:29:52.623Z,51.03
2022-11-02T19:32:19.926Z,51.58
2022-11-02T19:34:46.641Z,51.36
2022-11-02T19:37:13.543Z,51.31
2022-11-02T19:39:43.222Z,51.63
2022-11-02T19:42:12.296Z,51.14
2022-11-02T19:44:42.796Z,51.17
2022-11-02T19:47:10.110Z,51.21
2022-11-02T19:49:36.687Z,51.71
2022-11-02T19:52:04.125Z,51.44
2022-11-02T19:54:32.278Z,51.91
2022-11-02T19:56:59.291Z,51.93
2022-11-02T19:59:25.974Z,51.87
2022-11-02T20:01:52.837Z,52.12
2022-11-02T20:04:19.668Z,51.86
2022-11-02T20:06:46.457Z,51.87
2022-11-02T20:09:18.518Z,51.71
2022-11-02T20:11:46.860Z,52.25
2022-11-02T20:14:15.683Z,52.19
2022-11-02T20:16:42.707Z,52.61
2022-11-02T20:19:10.123Z,52.63
2022-11-02T20:21:42.743Z,52.62
2022-11-02T20:24:11.289Z,53.35
2022-11-02T20:26:41.401Z,53.45
2022-11-02T20:29:11.000Z,53.44
2022-11-02T20:31:41.738Z,53.68
2022-11-02T20:34:09.167Z,53.38
2022-11-02T20:36:36.309Z,53.49
2022-11-02T20:39:04.864Z,53.29
2022-11-02T20:41:32.020Z,53.78
2022-11-02T20:43:59.642Z,53.24
2022-11-02T20:46:37.420Z,53.56
2022-11-02T20:49:20.600Z,53.56
2022-11-02T20:51:50.821Z,53.07
2022-11-02T20:54:19.509Z,53.38
2022-11-02T20:56:46.541Z,53.33
2022-11-02T20:59:13.314Z,53.84
2022-11-02T21:01:40.141Z,53.24
2022-11-02T21:04:07.187Z,53.41
2022-11-02T21:06:33.791Z,53.70
2022-11-02T21:09:00.878Z,54.12
2022-11-02T21:11:46.088Z,54.38
2022-11-02T21:14:12.867Z,54.86
2022-11-02T21:16:39.573Z,55.20
2022-11-02T21:19:06.657Z,55.46
2022-11-02T21:21:33.784Z,55.58
2022-11-02T21:24:00.717Z,55.70
2022-11-02T21:26:29.190Z,55.52
2022-11-02T21:28:55.967Z,55.37
2022-11-02T21:31:22.779Z,54.70
2022-11-02T21:33:49.809Z,55.30
2022-11-02T21:36:17.621Z,55.74
2022-11-02T21:38:45.097Z,55.34
2022-11-02T21:41:18.185Z,55.16
2022-11-02T21:43:44.850Z,55.54
2022-11-02T21:46:11.485Z,55.24
2022-11-02T21:48:38.627Z,55.39
2022-11-02T21:51:09.825Z,55.68
2022-11-02T21:53:39.231Z,55.51
2022-11-02T21:56:07.101Z,55.65
2022-11-02T21:58:34.257Z,56.05
2022-11-02T22:01:24.564Z,55.58
2022-11-02T22:03:52.330Z,56.32
2022-11-02T22:06:21.184Z,56.15
2022-11-02T22:08:48.766Z,56.42
2022-11-02T22:11:24.514Z,56.34
2022-11-02T22:13:52.534Z,56.29
2022-11-02T22:16:24.964Z,56.20
2022-11-02T22:18:57.197Z,56.39
2022-11-02T22:21:25.588Z,56.57
2022-11-02T22:23:52.743Z,57.01
2022-11-02T22:26:21.669Z,57.07
2022-11-02T22:28:49.211Z,56.98
2022-11-02T22:31:23.343Z,57.28
2022-11-02T22:33:52.548Z,56.88
2022-11-02T22:36:22.170Z,57.13
2022-11-02T22:38:51.530Z,57.42
2022-11-02T22:41:35.341Z,57.34
2022-11-02T22:44:03.443Z,57.35
2022-11-02T22:46:31.601Z,57.27
2022-11-02T22:48:59.662Z,57.35
2022-11-02T22:51:28.559Z,57.51
2022-11-02T22:53:55.622Z,58.00
2022-11-02T22:56:23.896Z,57.21
2022-11-02T22:58:50.545Z,57.07
2022-11-02T23:01:22.173Z,57.32
2022-11-02T23:03:49.494Z,57.44
2022-11-02T23:06:18.401Z,57.57
2022-11-02T23:08:46.054Z,56.83
2022-11-02T23:11:24.497Z,57.68
2022-11-02T23:13:54.002Z,57.41
2022-11-02T23:16:26.253Z,57.18
2022-11-02T23:19:25.369Z,57.09
2022-11-02T23:22:13.913Z,57.75
2022-11-02T23:25:09.300Z,57.82
2022-11-02T23:27:59.080Z,57.86
2022-11-02T23:30:46.457Z,58.50
2022-11-02T23:33:13.077Z,58.85
2022-11-02T23:35:58.317Z,58.96
2022-11-02T23:38:24.961Z,59.49
2022-11-02T23:40:55.113Z,59.57
2022-11-02T23:43:21.897Z,59.99
2022-11-02T23:45:48.482Z,60.45
2022-11-02T23:51:01.140Z,60.11
2022-11-02T23:53:46.126Z,60.14
2022-11-02T23:56:33.504Z,59.93
2022-11-02T23:59:18.012Z,60.14
